sensor_id;sensor_type;location;lat;lon;timestamp;temperature;humidity
52321;DHT22;38261;54.090;13.382;2023-09-19T00:00:56;19.00;99.90
52321;DHT22;38261;54.090;13.382;2023-09-19T00:02:18;18.90;99.90
52321;DHT22;38261;54.090;13.382;2023-09-19T00:03:41;18.90;99.90
52321;DHT22;38261;54.090;13.382;2023-09-19T00:05:06;19.00;99.90
52321;DHT22;38261;54.090;13.382;2023-09-19T00:06:30;18.90;99.90
52321;DHT22;38261;54.090;13.382;2023-09-19T00:07:54;18.90;99.90
52321;DHT22;38261;54.090;13.382;2023-09-19T00:09:17;18.90;99.90
52321;DHT22;38261;54.090;13.382;2023-09-19T00:10:39;18.90;99.90
52321;DHT22;38261;54.090;13.382;2023-09-19T00:12:07;18.90;99.90
52321;DHT22;38261;54.090;13.382;2023-09-19T00:13:32;18.90;99.90
52321;DHT22;38261;54.090;13.382;2023-09-19T00:14:54;18.90;99.90
52321;DHT22;38261;54.090;13.382;2023-09-19T00:16:18;18.90;99.90
52321;DHT22;38261;54.090;13.382;2023-09-19T00:17:44;18.90;99.90
52321;DHT22;38261;54.090;13.382;2023-09-19T00:19:06;18.90;99.90
52321;DHT22;38261;54.090;13.382;2023-09-19T00:20:31;18.90;99.90
52321;DHT22;38261;54.090;13.382;2023-09-19T00:21:53;18.90;99.90
52321;DHT22;38261;54.090;13.382;2023-09-19T00:23:15;18.90;99.90
52321;DHT22;38261;54.090;13.382;2023-09-19T00:24:37;18.90;99.90
52321;DHT22;38261;54.090;13.382;2023-09-19T00:26:00;18.90;99.90
52321;DHT22;38261;54.090;13.382;2023-09-19T00:27:22;18.90;99.90
52321;DHT22;38261;54.090;13.382;2023-09-19T00:28:44;18.90;99.90
52321;DHT22;38261;54.090;13.382;2023-09-19T00:30:08;18.90;99.90
52321;DHT22;38261;54.090;13.382;2023-09-19T00:31:37;18.80;99.90
52321;DHT22;38261;54.090;13.382;2023-09-19T00:33:00;18.80;99.90
52321;DHT22;38261;54.090;13.382;2023-09-19T00:34:23;18.80;99.90
52321;DHT22;38261;54.090;13.382;2023-09-19T00:35:49;18.80;99.90
52321;DHT22;38261;54.090;13.382;2023-09-19T00:37:12;18.80;99.90
52321;DHT22;38261;54.090;13.382;2023-09-19T00:38:34;18.80;99.90
52321;DHT22;38261;54.090;13.382;2023-09-19T00:39:56;18.80;99.90
52321;DHT22;38261;54.090;13.382;2023-09-19T00:41:18;18.90;99.90
52321;DHT22;38261;54.090;13.382;2023-09-19T00:42:44;18.80;99.90
52321;DHT22;38261;54.090;13.382;2023-09-19T00:44:06;18.90;99.90
52321;DHT22;38261;54.090;13.382;2023-09-19T00:45:29;18.90;99.90
52321;DHT22;38261;54.090;13.382;2023-09-19T00:46:52;18.80;99.90
52321;DHT22;38261;54.090;13.382;2023-09-19T00:48:19;18.80;99.90
52321;DHT22;38261;54.090;13.382;2023-09-19T00:49:42;18.80;99.90
52321;DHT22;38261;54.090;13.382;2023-09-19T00:51:04;18.80;99.90
52321;DHT22;38261;54.090;13.382;2023-09-19T00:52:27;18.80;99.90
52321;DHT22;38261;54.090;13.382;2023-09-19T00:53:49;18.80;99.90
52321;DHT22;38261;54.090;13.382;2023-09-19T00:55:12;18.80;99.90
52321;DHT22;38261;54.090;13.382;2023-09-19T00:56:35;18.80;99.90
52321;DHT22;38261;54.090;13.382;2023-09-19T00:58:00;18.80;99.90
52321;DHT22;38261;54.090;13.382;2023-09-19T00:59:22;18.80;99.90
52321;DHT22;38261;54.090;13.382;2023-09-19T01:00:50;18.80;99.90
52321;DHT22;38261;54.090;13.382;2023-09-19T01:02:12;18.80;99.90
52321;DHT22;38261;54.090;13.382;2023-09-19T01:03:39;18.80;99.90
52321;DHT22;38261;54.090;13.382;2023-09-19T01:05:03;18.80;99.90
52321;DHT22;38261;54.090;13.382;2023-09-19T01:06:30;18.70;99.90
52321;DHT22;38261;54.090;13.382;2023-09-19T01:07:53;18.80;99.90
52321;DHT22;38261;54.090;13.382;2023-09-19T01:09:15;18.80;99.90
52321;DHT22;38261;54.090;13.382;2023-09-19T01:10:59;18.80;99.90
52321;DHT22;38261;54.090;13.382;2023-09-19T01:12:35;18.70;99.90
52321;DHT22;38261;54.090;13.382;2023-09-19T01:15:59;18.70;99.90
52321;DHT22;38261;54.090;13.382;2023-09-19T01:21:27;18.60;99.90
52321;DHT22;38261;54.090;13.382;2023-09-19T01:23:23;18.60;99.90
52321;DHT22;38261;54.090;13.382;2023-09-19T01:28:42;18.50;99.90
52321;DHT22;38261;54.090;13.382;2023-09-19T01:30:14;18.50;99.90
52321;DHT22;38261;54.090;13.382;2023-09-19T01:31:40;18.50;99.90
52321;DHT22;38261;54.090;13.382;2023-09-19T01:33:05;18.50;99.90
52321;DHT22;38261;54.090;13.382;2023-09-19T01:36:11;18.40;99.90
52321;DHT22;38261;54.090;13.382;2023-09-19T01:37:34;18.40;99.90
52321;DHT22;38261;54.090;13.382;2023-09-19T01:38:57;18.30;99.90
52321;DHT22;38261;54.090;13.382;2023-09-19T01:40:27;18.40;99.90
52321;DHT22;38261;54.090;13.382;2023-09-19T01:43:31;18.30;99.90
52321;DHT22;38261;54.090;13.382;2023-09-19T01:45:03;18.30;99.90
52321;DHT22;38261;54.090;13.382;2023-09-19T01:46:30;18.30;99.90
52321;DHT22;38261;54.090;13.382;2023-09-19T01:48:04;18.30;99.90
52321;DHT22;38261;54.090;13.382;2023-09-19T01:49:50;18.30;99.90
52321;DHT22;38261;54.090;13.382;2023-09-19T01:53:10;18.20;99.90
52321;DHT22;38261;54.090;13.382;2023-09-19T01:54:48;18.20;99.90
52321;DHT22;38261;54.090;13.382;2023-09-19T01:56:21;18.20;99.90
52321;DHT22;38261;54.090;13.382;2023-09-19T01:58:14;18.20;99.90
52321;DHT22;38261;54.090;13.382;2023-09-19T01:59:45;18.20;99.90
52321;DHT22;38261;54.090;13.382;2023-09-19T02:01:11;18.20;99.90
52321;DHT22;38261;54.090;13.382;2023-09-19T02:02:40;18.10;99.90
52321;DHT22;38261;54.090;13.382;2023-09-19T02:04:04;18.10;99.90
52321;DHT22;38261;54.090;13.382;2023-09-19T02:05:26;18.10;99.90
52321;DHT22;38261;54.090;13.382;2023-09-19T02:06:52;18.10;99.90
52321;DHT22;38261;54.090;13.382;2023-09-19T02:08:17;18.10;99.90
52321;DHT22;38261;54.090;13.382;2023-09-19T02:09:40;18.00;99.90
52321;DHT22;38261;54.090;13.382;2023-09-19T02:11:04;18.10;99.90
52321;DHT22;38261;54.090;13.382;2023-09-19T02:12:28;18.10;99.90
52321;DHT22;38261;54.090;13.382;2023-09-19T02:13:50;18.10;99.90
52321;DHT22;38261;54.090;13.382;2023-09-19T02:15:16;18.10;99.90
52321;DHT22;38261;54.090;13.382;2023-09-19T02:16:38;18.10;99.90
52321;DHT22;38261;54.090;13.382;2023-09-19T02:18:01;18.10;99.90
52321;DHT22;38261;54.090;13.382;2023-09-19T02:19:25;18.10;99.90
52321;DHT22;38261;54.090;13.382;2023-09-19T02:20:48;18.20;99.90
52321;DHT22;38261;54.090;13.382;2023-09-19T02:22:10;18.20;99.90
52321;DHT22;38261;54.090;13.382;2023-09-19T02:23:33;18.20;99.90
52321;DHT22;38261;54.090;13.382;2023-09-19T02:24:55;18.20;99.90
52321;DHT22;38261;54.090;13.382;2023-09-19T02:26:20;18.20;99.90
52321;DHT22;38261;54.090;13.382;2023-09-19T02:27:42;18.20;99.90
52321;DHT22;38261;54.090;13.382;2023-09-19T02:29:04;18.30;99.90
52321;DHT22;38261;54.090;13.382;2023-09-19T02:30:26;18.30;99.90
52321;DHT22;38261;54.090;13.382;2023-09-19T02:31:49;18.30;99.90
52321;DHT22;38261;54.090;13.382;2023-09-19T02:33:11;18.30;99.90
52321;DHT22;38261;54.090;13.382;2023-09-19T02:34:33;18.30;99.90
52321;DHT22;38261;54.090;13.382;2023-09-19T02:35:58;18.30;99.90
52321;DHT22;38261;54.090;13.382;2023-09-19T02:37:21;18.30;99.90
52321;DHT22;38261;54.090;13.382;2023-09-19T02:38:43;18.30;99.90
52321;DHT22;38261;54.090;13.382;2023-09-19T02:40:06;18.40;99.90
52321;DHT22;38261;54.090;13.382;2023-09-19T02:41:41;18.40;99.90
52321;DHT22;38261;54.090;13.382;2023-09-19T02:43:03;18.40;99.90
52321;DHT22;38261;54.090;13.382;2023-09-19T02:44:26;18.40;99.90
52321;DHT22;38261;54.090;13.382;2023-09-19T02:45:50;18.40;99.90
52321;DHT22;38261;54.090;13.382;2023-09-19T02:47:12;18.40;99.90
52321;DHT22;38261;54.090;13.382;2023-09-19T02:48:37;18.40;99.90
52321;DHT22;38261;54.090;13.382;2023-09-19T02:49:59;18.40;99.90
52321;DHT22;38261;54.090;13.382;2023-09-19T02:51:21;18.40;99.90
52321;DHT22;38261;54.090;13.382;2023-09-19T02:52:44;18.40;99.90
52321;DHT22;38261;54.090;13.382;2023-09-19T02:54:07;18.40;99.90
52321;DHT22;38261;54.090;13.382;2023-09-19T02:55:29;18.40;99.90
52321;DHT22;38261;54.090;13.382;2023-09-19T02:56:52;18.40;99.90
52321;DHT22;38261;54.090;13.382;2023-09-19T02:58:15;18.40;99.90
52321;DHT22;38261;54.090;13.382;2023-09-19T02:59:38;18.40;99.90
52321;DHT22;38261;54.090;13.382;2023-09-19T03:01:08;18.40;99.90
52321;DHT22;38261;54.090;13.382;2023-09-19T03:02:30;18.40;99.90
52321;DHT22;38261;54.090;13.382;2023-09-19T03:03:55;18.40;99.90
52321;DHT22;38261;54.090;13.382;2023-09-19T03:05:17;18.40;99.90
52321;DHT22;38261;54.090;13.382;2023-09-19T03:06:39;18.40;99.90
52321;DHT22;38261;54.090;13.382;2023-09-19T03:08:02;18.30;99.90
52321;DHT22;38261;54.090;13.382;2023-09-19T03:09:25;18.30;99.90
52321;DHT22;38261;54.090;13.382;2023-09-19T03:10:47;18.30;99.90
52321;DHT22;38261;54.090;13.382;2023-09-19T03:12:12;18.30;99.90
52321;DHT22;38261;54.090;13.382;2023-09-19T03:13:37;18.20;99.90
52321;DHT22;38261;54.090;13.382;2023-09-19T03:15:00;18.20;99.90
52321;DHT22;38261;54.090;13.382;2023-09-19T03:16:22;18.20;99.90
52321;DHT22;38261;54.090;13.382;2023-09-19T03:17:46;18.10;99.90
52321;DHT22;38261;54.090;13.382;2023-09-19T03:19:09;18.10;99.90
52321;DHT22;38261;54.090;13.382;2023-09-19T03:20:32;18.10;99.90
52321;DHT22;38261;54.090;13.382;2023-09-19T03:21:54;18.00;99.90
52321;DHT22;38261;54.090;13.382;2023-09-19T03:23:16;18.00;99.90
52321;DHT22;38261;54.090;13.382;2023-09-19T03:24:39;17.90;99.90
52321;DHT22;38261;54.090;13.382;2023-09-19T03:26:01;17.90;99.90
52321;DHT22;38261;54.090;13.382;2023-09-19T03:27:23;17.90;99.90
52321;DHT22;38261;54.090;13.382;2023-09-19T03:28:46;17.80;99.90
52321;DHT22;38261;54.090;13.382;2023-09-19T03:30:09;17.80;99.90
52321;DHT22;38261;54.090;13.382;2023-09-19T03:31:31;17.80;99.90
52321;DHT22;38261;54.090;13.382;2023-09-19T03:32:53;17.70;99.90
52321;DHT22;38261;54.090;13.382;2023-09-19T03:34:16;17.70;99.90
52321;DHT22;38261;54.090;13.382;2023-09-19T03:35:39;17.70;99.90
52321;DHT22;38261;54.090;13.382;2023-09-19T03:37:02;17.60;99.90
52321;DHT22;38261;54.090;13.382;2023-09-19T03:38:27;17.60;99.90
52321;DHT22;38261;54.090;13.382;2023-09-19T03:39:50;17.60;99.90
52321;DHT22;38261;54.090;13.382;2023-09-19T03:41:13;17.50;99.90
52321;DHT22;38261;54.090;13.382;2023-09-19T03:42:40;17.50;99.90
52321;DHT22;38261;54.090;13.382;2023-09-19T03:44:02;17.50;99.90
52321;DHT22;38261;54.090;13.382;2023-09-19T03:45:24;17.50;99.90
52321;DHT22;38261;54.090;13.382;2023-09-19T03:46:47;17.40;99.90
52321;DHT22;38261;54.090;13.382;2023-09-19T03:48:10;17.40;99.90
52321;DHT22;38261;54.090;13.382;2023-09-19T03:49:32;17.40;99.90
52321;DHT22;38261;54.090;13.382;2023-09-19T03:50:56;17.40;99.90
52321;DHT22;38261;54.090;13.382;2023-09-19T03:52:18;17.30;99.90
52321;DHT22;38261;54.090;13.382;2023-09-19T03:53:40;17.30;99.90
52321;DHT22;38261;54.090;13.382;2023-09-19T03:55:03;17.30;99.90
52321;DHT22;38261;54.090;13.382;2023-09-19T03:56:26;17.20;99.90
52321;DHT22;38261;54.090;13.382;2023-09-19T03:57:48;17.20;99.90
52321;DHT22;38261;54.090;13.382;2023-09-19T03:59:12;17.20;99.90
52321;DHT22;38261;54.090;13.382;2023-09-19T04:00:34;17.20;99.90
52321;DHT22;38261;54.090;13.382;2023-09-19T04:02:00;17.20;99.90
52321;DHT22;38261;54.090;13.382;2023-09-19T04:03:22;17.20;99.90
52321;DHT22;38261;54.090;13.382;2023-09-19T04:04:45;17.20;99.90
52321;DHT22;38261;54.090;13.382;2023-09-19T04:06:07;17.20;99.90
52321;DHT22;38261;54.090;13.382;2023-09-19T04:07:29;17.20;99.90
52321;DHT22;38261;54.090;13.382;2023-09-19T04:08:52;17.20;99.90
52321;DHT22;38261;54.090;13.382;2023-09-19T04:10:14;17.10;99.90
52321;DHT22;38261;54.090;13.382;2023-09-19T04:11:36;17.10;99.90
52321;DHT22;38261;54.090;13.382;2023-09-19T04:12:58;17.10;99.90
52321;DHT22;38261;54.090;13.382;2023-09-19T04:14:21;17.10;99.90
52321;DHT22;38261;54.090;13.382;2023-09-19T04:15:43;17.00;99.90
52321;DHT22;38261;54.090;13.382;2023-09-19T04:17:05;17.00;99.90
52321;DHT22;38261;54.090;13.382;2023-09-19T04:18:31;17.00;99.90
52321;DHT22;38261;54.090;13.382;2023-09-19T04:19:55;17.00;99.90
52321;DHT22;38261;54.090;13.382;2023-09-19T04:21:17;16.90;99.90
52321;DHT22;38261;54.090;13.382;2023-09-19T04:22:41;16.90;99.90
52321;DHT22;38261;54.090;13.382;2023-09-19T04:24:03;16.90;99.90
52321;DHT22;38261;54.090;13.382;2023-09-19T04:25:26;16.90;99.90
52321;DHT22;38261;54.090;13.382;2023-09-19T04:26:49;16.80;99.90
52321;DHT22;38261;54.090;13.382;2023-09-19T04:28:11;16.80;99.90
52321;DHT22;38261;54.090;13.382;2023-09-19T04:29:33;16.80;99.90
52321;DHT22;38261;54.090;13.382;2023-09-19T04:30:55;16.80;99.90
52321;DHT22;38261;54.090;13.382;2023-09-19T04:32:17;16.80;99.90
52321;DHT22;38261;54.090;13.382;2023-09-19T04:33:40;16.80;99.90
52321;DHT22;38261;54.090;13.382;2023-09-19T04:35:03;16.70;99.90
52321;DHT22;38261;54.090;13.382;2023-09-19T04:36:28;16.70;99.90
52321;DHT22;38261;54.090;13.382;2023-09-19T04:37:57;16.70;99.90
52321;DHT22;38261;54.090;13.382;2023-09-19T04:39:19;16.70;99.90
52321;DHT22;38261;54.090;13.382;2023-09-19T04:40:42;16.70;99.90
52321;DHT22;38261;54.090;13.382;2023-09-19T04:42:05;16.70;99.90
52321;DHT22;38261;54.090;13.382;2023-09-19T04:43:29;16.70;99.90
52321;DHT22;38261;54.090;13.382;2023-09-19T04:44:52;16.60;99.90
52321;DHT22;38261;54.090;13.382;2023-09-19T04:46:16;16.60;99.90
52321;DHT22;38261;54.090;13.382;2023-09-19T04:47:39;16.60;99.90
52321;DHT22;38261;54.090;13.382;2023-09-19T04:49:02;16.60;99.90
52321;DHT22;38261;54.090;13.382;2023-09-19T04:50:27;16.60;99.90
52321;DHT22;38261;54.090;13.382;2023-09-19T04:51:50;16.60;99.90
52321;DHT22;38261;54.090;13.382;2023-09-19T04:53:12;16.70;99.90
52321;DHT22;38261;54.090;13.382;2023-09-19T04:54:34;16.60;99.90
52321;DHT22;38261;54.090;13.382;2023-09-19T04:55:56;16.60;99.90
52321;DHT22;38261;54.090;13.382;2023-09-19T04:57:19;16.60;99.90
52321;DHT22;38261;54.090;13.382;2023-09-19T04:58:42;16.60;99.90
52321;DHT22;38261;54.090;13.382;2023-09-19T05:00:04;16.60;99.90
52321;DHT22;38261;54.090;13.382;2023-09-19T05:01:34;16.60;99.90
52321;DHT22;38261;54.090;13.382;2023-09-19T05:02:57;16.60;99.90
52321;DHT22;38261;54.090;13.382;2023-09-19T05:04:20;16.50;99.90
52321;DHT22;38261;54.090;13.382;2023-09-19T05:05:42;16.50;99.90
52321;DHT22;38261;54.090;13.382;2023-09-19T05:07:04;16.50;99.90
52321;DHT22;38261;54.090;13.382;2023-09-19T05:08:27;16.50;99.90
52321;DHT22;38261;54.090;13.382;2023-09-19T05:09:49;16.50;99.90
52321;DHT22;38261;54.090;13.382;2023-09-19T05:11:11;16.50;99.90
52321;DHT22;38261;54.090;13.382;2023-09-19T05:12:34;16.50;99.90
52321;DHT22;38261;54.090;13.382;2023-09-19T05:13:57;16.50;99.90
52321;DHT22;38261;54.090;13.382;2023-09-19T05:15:23;16.50;99.90
52321;DHT22;38261;54.090;13.382;2023-09-19T05:16:46;16.50;99.90
52321;DHT22;38261;54.090;13.382;2023-09-19T05:18:08;16.50;99.90
52321;DHT22;38261;54.090;13.382;2023-09-19T05:19:30;16.50;99.90
52321;DHT22;38261;54.090;13.382;2023-09-19T05:20:52;16.50;99.90
52321;DHT22;38261;54.090;13.382;2023-09-19T05:22:16;16.50;99.90
52321;DHT22;38261;54.090;13.382;2023-09-19T05:23:40;16.60;99.90
52321;DHT22;38261;54.090;13.382;2023-09-19T05:25:03;16.60;99.90
52321;DHT22;38261;54.090;13.382;2023-09-19T05:26:26;16.60;99.90
52321;DHT22;38261;54.090;13.382;2023-09-19T05:27:48;16.60;99.90
52321;DHT22;38261;54.090;13.382;2023-09-19T05:29:12;16.60;99.90
52321;DHT22;38261;54.090;13.382;2023-09-19T05:30:35;16.70;99.90
52321;DHT22;38261;54.090;13.382;2023-09-19T05:31:58;16.70;99.90
52321;DHT22;38261;54.090;13.382;2023-09-19T05:33:20;16.80;99.90
52321;DHT22;38261;54.090;13.382;2023-09-19T05:34:42;16.80;99.90
52321;DHT22;38261;54.090;13.382;2023-09-19T05:36:05;16.90;99.90
52321;DHT22;38261;54.090;13.382;2023-09-19T05:37:27;16.90;99.90
52321;DHT22;38261;54.090;13.382;2023-09-19T05:38:49;17.00;99.90
52321;DHT22;38261;54.090;13.382;2023-09-19T05:40:14;17.00;99.90
52321;DHT22;38261;54.090;13.382;2023-09-19T05:41:38;17.00;99.90
52321;DHT22;38261;54.090;13.382;2023-09-19T05:43:02;17.00;99.90
52321;DHT22;38261;54.090;13.382;2023-09-19T05:44:27;17.10;99.90
52321;DHT22;38261;54.090;13.382;2023-09-19T05:45:49;17.20;99.90
52321;DHT22;38261;54.090;13.382;2023-09-19T05:47:14;17.20;99.90
52321;DHT22;38261;54.090;13.382;2023-09-19T05:48:36;17.20;99.90
52321;DHT22;38261;54.090;13.382;2023-09-19T05:49:58;17.20;99.90
52321;DHT22;38261;54.090;13.382;2023-09-19T05:51:21;17.20;99.90
52321;DHT22;38261;54.090;13.382;2023-09-19T05:52:51;17.20;99.90
52321;DHT22;38261;54.090;13.382;2023-09-19T05:54:14;17.20;99.90
52321;DHT22;38261;54.090;13.382;2023-09-19T05:55:37;17.20;99.90
52321;DHT22;38261;54.090;13.382;2023-09-19T05:57:02;17.20;99.90
52321;DHT22;38261;54.090;13.382;2023-09-19T05:58:24;17.20;99.90
52321;DHT22;38261;54.090;13.382;2023-09-19T05:59:46;17.20;99.90
52321;DHT22;38261;54.090;13.382;2023-09-19T06:01:10;17.20;99.90
52321;DHT22;38261;54.090;13.382;2023-09-19T06:02:32;17.20;99.90
52321;DHT22;38261;54.090;13.382;2023-09-19T06:03:55;17.20;99.90
52321;DHT22;38261;54.090;13.382;2023-09-19T06:05:17;17.20;99.90
52321;DHT22;38261;54.090;13.382;2023-09-19T06:06:40;17.30;99.90
52321;DHT22;38261;54.090;13.382;2023-09-19T06:08:02;17.30;99.90
52321;DHT22;38261;54.090;13.382;2023-09-19T06:09:30;17.30;99.90
52321;DHT22;38261;54.090;13.382;2023-09-19T06:10:54;17.30;99.90
52321;DHT22;38261;54.090;13.382;2023-09-19T06:12:16;17.30;99.90
52321;DHT22;38261;54.090;13.382;2023-09-19T06:13:39;17.40;99.90
52321;DHT22;38261;54.090;13.382;2023-09-19T06:15:01;17.40;99.90
52321;DHT22;38261;54.090;13.382;2023-09-19T06:16:23;17.40;99.90
52321;DHT22;38261;54.090;13.382;2023-09-19T06:17:53;17.50;99.90
52321;DHT22;38261;54.090;13.382;2023-09-19T06:19:21;17.50;99.90
52321;DHT22;38261;54.090;13.382;2023-09-19T06:20:47;17.50;99.90
52321;DHT22;38261;54.090;13.382;2023-09-19T06:22:09;17.50;99.90
52321;DHT22;38261;54.090;13.382;2023-09-19T06:23:32;17.50;99.90
52321;DHT22;38261;54.090;13.382;2023-09-19T06:24:54;17.60;99.90
52321;DHT22;38261;54.090;13.382;2023-09-19T06:26:16;17.60;99.90
52321;DHT22;38261;54.090;13.382;2023-09-19T06:27:39;17.60;99.90
52321;DHT22;38261;54.090;13.382;2023-09-19T06:29:04;17.60;99.90
52321;DHT22;38261;54.090;13.382;2023-09-19T06:30:29;17.70;99.90
52321;DHT22;38261;54.090;13.382;2023-09-19T06:31:52;17.70;99.90
52321;DHT22;38261;54.090;13.382;2023-09-19T06:33:14;17.70;99.90
52321;DHT22;38261;54.090;13.382;2023-09-19T06:34:40;17.70;99.90
52321;DHT22;38261;54.090;13.382;2023-09-19T06:36:06;17.70;99.90
52321;DHT22;38261;54.090;13.382;2023-09-19T06:37:29;17.70;99.90
52321;DHT22;38261;54.090;13.382;2023-09-19T06:38:51;17.80;99.90
52321;DHT22;38261;54.090;13.382;2023-09-19T06:40:14;17.80;99.90
52321;DHT22;38261;54.090;13.382;2023-09-19T06:41:37;17.80;99.90
52321;DHT22;38261;54.090;13.382;2023-09-19T06:43:01;17.70;99.90
52321;DHT22;38261;54.090;13.382;2023-09-19T06:44:26;17.70;99.90
52321;DHT22;38261;54.090;13.382;2023-09-19T06:45:48;17.70;99.90
52321;DHT22;38261;54.090;13.382;2023-09-19T06:47:10;17.70;99.90
52321;DHT22;38261;54.090;13.382;2023-09-19T06:48:32;17.70;99.90
52321;DHT22;38261;54.090;13.382;2023-09-19T06:49:55;17.60;99.90
52321;DHT22;38261;54.090;13.382;2023-09-19T06:51:18;17.60;99.90
52321;DHT22;38261;54.090;13.382;2023-09-19T06:52:41;17.60;99.90
52321;DHT22;38261;54.090;13.382;2023-09-19T06:54:03;17.60;99.90
52321;DHT22;38261;54.090;13.382;2023-09-19T06:55:27;17.70;99.90
52321;DHT22;38261;54.090;13.382;2023-09-19T06:56:50;17.70;99.90
52321;DHT22;38261;54.090;13.382;2023-09-19T06:58:12;17.70;99.90
52321;DHT22;38261;54.090;13.382;2023-09-19T06:59:34;17.80;99.90
52321;DHT22;38261;54.090;13.382;2023-09-19T07:00:58;17.80;99.90
52321;DHT22;38261;54.090;13.382;2023-09-19T07:02:20;17.90;99.90
52321;DHT22;38261;54.090;13.382;2023-09-19T07:03:44;17.90;99.90
52321;DHT22;38261;54.090;13.382;2023-09-19T07:05:07;17.90;99.90
52321;DHT22;38261;54.090;13.382;2023-09-19T07:06:29;18.00;99.90
52321;DHT22;38261;54.090;13.382;2023-09-19T07:07:52;18.00;99.90
52321;DHT22;38261;54.090;13.382;2023-09-19T07:09:14;18.00;99.90
52321;DHT22;38261;54.090;13.382;2023-09-19T07:10:36;18.00;99.90
52321;DHT22;38261;54.090;13.382;2023-09-19T07:11:58;17.90;99.90
52321;DHT22;38261;54.090;13.382;2023-09-19T07:13:20;17.90;99.90
52321;DHT22;38261;54.090;13.382;2023-09-19T07:14:43;17.90;99.90
52321;DHT22;38261;54.090;13.382;2023-09-19T07:16:05;18.00;99.90
52321;DHT22;38261;54.090;13.382;2023-09-19T07:17:27;18.00;99.90
52321;DHT22;38261;54.090;13.382;2023-09-19T07:18:51;18.10;99.90
52321;DHT22;38261;54.090;13.382;2023-09-19T07:20:14;18.20;99.90
52321;DHT22;38261;54.090;13.382;2023-09-19T07:21:38;18.30;99.90
52321;DHT22;38261;54.090;13.382;2023-09-19T07:23:04;18.40;99.90
52321;DHT22;38261;54.090;13.382;2023-09-19T07:24:26;18.50;99.90
52321;DHT22;38261;54.090;13.382;2023-09-19T07:25:50;18.70;99.90
52321;DHT22;38261;54.090;13.382;2023-09-19T07:27:13;18.80;99.90
52321;DHT22;38261;54.090;13.382;2023-09-19T07:28:35;18.90;99.90
52321;DHT22;38261;54.090;13.382;2023-09-19T07:29:58;18.90;99.90
52321;DHT22;38261;54.090;13.382;2023-09-19T07:31:20;19.00;99.90
52321;DHT22;38261;54.090;13.382;2023-09-19T07:32:44;19.10;99.90
52321;DHT22;38261;54.090;13.382;2023-09-19T07:34:07;19.20;99.90
52321;DHT22;38261;54.090;13.382;2023-09-19T07:35:30;19.20;99.90
52321;DHT22;38261;54.090;13.382;2023-09-19T07:36:53;19.20;99.90
52321;DHT22;38261;54.090;13.382;2023-09-19T07:38:15;19.20;99.90
52321;DHT22;38261;54.090;13.382;2023-09-19T07:39:37;19.20;99.90
52321;DHT22;38261;54.090;13.382;2023-09-19T07:41:02;19.20;99.90
52321;DHT22;38261;54.090;13.382;2023-09-19T07:42:25;19.20;99.90
52321;DHT22;38261;54.090;13.382;2023-09-19T07:43:47;19.20;99.90
52321;DHT22;38261;54.090;13.382;2023-09-19T07:45:10;19.20;99.90
52321;DHT22;38261;54.090;13.382;2023-09-19T07:46:40;19.20;99.90
52321;DHT22;38261;54.090;13.382;2023-09-19T07:48:02;19.20;99.90
52321;DHT22;38261;54.090;13.382;2023-09-19T07:49:27;19.20;99.90
52321;DHT22;38261;54.090;13.382;2023-09-19T07:50:49;19.20;99.90
52321;DHT22;38261;54.090;13.382;2023-09-19T07:52:11;19.10;99.90
52321;DHT22;38261;54.090;13.382;2023-09-19T07:53:37;19.10;99.90
52321;DHT22;38261;54.090;13.382;2023-09-19T07:55:00;19.10;99.90
52321;DHT22;38261;54.090;13.382;2023-09-19T07:56:23;19.10;99.90
52321;DHT22;38261;54.090;13.382;2023-09-19T07:57:47;19.10;99.90
52321;DHT22;38261;54.090;13.382;2023-09-19T07:59:09;19.10;99.90
52321;DHT22;38261;54.090;13.382;2023-09-19T08:00:33;19.10;99.90
52321;DHT22;38261;54.090;13.382;2023-09-19T08:01:57;19.20;99.90
52321;DHT22;38261;54.090;13.382;2023-09-19T08:03:19;19.20;99.90
52321;DHT22;38261;54.090;13.382;2023-09-19T08:04:43;19.30;99.90
52321;DHT22;38261;54.090;13.382;2023-09-19T08:06:08;19.30;99.90
52321;DHT22;38261;54.090;13.382;2023-09-19T08:07:30;19.30;99.90
52321;DHT22;38261;54.090;13.382;2023-09-19T08:08:52;19.40;99.90
52321;DHT22;38261;54.090;13.382;2023-09-19T08:10:16;19.40;99.90
52321;DHT22;38261;54.090;13.382;2023-09-19T08:11:41;19.40;99.90
52321;DHT22;38261;54.090;13.382;2023-09-19T08:13:03;19.40;99.90
52321;DHT22;38261;54.090;13.382;2023-09-19T08:14:26;19.50;99.90
52321;DHT22;38261;54.090;13.382;2023-09-19T08:15:48;19.50;99.90
52321;DHT22;38261;54.090;13.382;2023-09-19T08:17:11;19.50;99.90
52321;DHT22;38261;54.090;13.382;2023-09-19T08:18:34;19.50;99.90
52321;DHT22;38261;54.090;13.382;2023-09-19T08:19:56;19.50;99.90
52321;DHT22;38261;54.090;13.382;2023-09-19T08:21:19;19.50;99.90
52321;DHT22;38261;54.090;13.382;2023-09-19T08:24:09;19.60;99.90
52321;DHT22;38261;54.090;13.382;2023-09-19T08:25:31;19.60;99.90
52321;DHT22;38261;54.090;13.382;2023-09-19T08:26:55;19.60;99.90
52321;DHT22;38261;54.090;13.382;2023-09-19T08:28:17;19.60;99.90
52321;DHT22;38261;54.090;13.382;2023-09-19T08:29:44;19.60;99.90
52321;DHT22;38261;54.090;13.382;2023-09-19T08:31:07;19.70;99.90
52321;DHT22;38261;54.090;13.382;2023-09-19T08:32:31;19.70;99.90
52321;DHT22;38261;54.090;13.382;2023-09-19T08:33:53;19.80;99.90
52321;DHT22;38261;54.090;13.382;2023-09-19T08:35:18;19.70;99.90
52321;DHT22;38261;54.090;13.382;2023-09-19T08:36:41;19.70;99.90
52321;DHT22;38261;54.090;13.382;2023-09-19T08:38:05;19.80;99.90
52321;DHT22;38261;54.090;13.382;2023-09-19T08:39:28;19.70;99.90
52321;DHT22;38261;54.090;13.382;2023-09-19T08:40:52;19.70;99.90
52321;DHT22;38261;54.090;13.382;2023-09-19T08:42:15;19.70;99.90
52321;DHT22;38261;54.090;13.382;2023-09-19T08:43:38;19.70;99.90
52321;DHT22;38261;54.090;13.382;2023-09-19T08:45:01;19.80;99.90
52321;DHT22;38261;54.090;13.382;2023-09-19T08:46:25;19.90;99.90
52321;DHT22;38261;54.090;13.382;2023-09-19T08:51:10;20.30;99.90
52321;DHT22;38261;54.090;13.382;2023-09-19T08:52:42;20.40;99.90
52321;DHT22;38261;54.090;13.382;2023-09-19T08:54:07;20.50;99.90
52321;DHT22;38261;54.090;13.382;2023-09-19T08:55:29;20.60;99.90
52321;DHT22;38261;54.090;13.382;2023-09-19T08:56:54;20.70;99.90
52321;DHT22;38261;54.090;13.382;2023-09-19T08:58:17;20.70;99.90
52321;DHT22;38261;54.090;13.382;2023-09-19T08:59:41;20.70;99.90
52321;DHT22;38261;54.090;13.382;2023-09-19T09:01:06;20.70;99.90